sensor_id;sensor_type;location;lat;lon;timestamp;pressure;altitude;pressure_sealevel;temperature;humidity
72116;BME280;59991;52.140;5.428;2023-08-12T00:00:21;101754.09;;;20.08;96.54
72116;BME280;59991;52.140;5.428;2023-08-12T00:00:52;101757.66;;;20.08;97.15
72116;BME280;59991;52.140;5.428;2023-08-12T00:01:24;101755.28;;;20.07;96.86
72116;BME280;59991;52.140;5.428;2023-08-12T00:01:56;101743.44;;;20.06;96.32
72116;BME280;59991;52.140;5.428;2023-08-12T00:02:28;101753.72;;;20.06;96.98
72116;BME280;59991;52.140;5.428;2023-08-12T00:02:59;101750.19;;;20.05;97.88
72116;BME280;59991;52.140;5.428;2023-08-12T00:03:31;101758.91;;;20.04;96.98
72116;BME280;59991;52.140;5.428;2023-08-12T00:04:03;101756.13;;;20.04;97.68
72116;BME280;59991;52.140;5.428;2023-08-12T00:04:34;101765.63;;;20.02;97.57
72116;BME280;59991;52.140;5.428;2023-08-12T00:05:07;101763.66;;;20.03;97.56
72116;BME280;59991;52.140;5.428;2023-08-12T00:05:38;101761.66;;;20.04;97.94
72116;BME280;59991;52.140;5.428;2023-08-12T00:06:11;101771.19;;;20.02;98.01
72116;BME280;59991;52.140;5.428;2023-08-12T00:06:43;101768.06;;;20.00;97.71
72116;BME280;59991;52.140;5.428;2023-08-12T00:07:15;101768.06;;;20.00;98.18
72116;BME280;59991;52.140;5.428;2023-08-12T00:07:48;101775.16;;;20.01;97.68
72116;BME280;59991;52.140;5.428;2023-08-12T00:08:19;101762.09;;;20.02;97.18
72116;BME280;59991;52.140;5.428;2023-08-12T00:08:51;101766.84;;;20.01;96.53
72116;BME280;59991;52.140;5.428;2023-08-12T00:09:22;101775.94;;;20.02;96.74
72116;BME280;59991;52.140;5.428;2023-08-12T00:09:53;101764.84;;;20.02;96.85
72116;BME280;59991;52.140;5.428;2023-08-12T00:10:27;101771.53;;;20.05;96.68
72116;BME280;59991;52.140;5.428;2023-08-12T00:10:58;101770.75;;;20.04;96.55
72116;BME280;59991;52.140;5.428;2023-08-12T00:11:30;101758.91;;;20.04;96.75
72116;BME280;59991;52.140;5.428;2023-08-12T00:12:01;101758.06;;;20.07;96.82
72116;BME280;59991;52.140;5.428;2023-08-12T00:12:37;101757.28;;;20.06;96.92
72116;BME280;59991;52.140;5.428;2023-08-12T00:13:09;101753.72;;;20.06;96.53
72116;BME280;59991;52.140;5.428;2023-08-12T00:13:41;101757.28;;;20.06;96.54
72116;BME280;59991;52.140;5.428;2023-08-12T00:14:13;101753.72;;;20.06;97.20
72116;BME280;59991;52.140;5.428;2023-08-12T00:14:44;101748.59;;;20.04;97.79
72116;BME280;59991;52.140;5.428;2023-08-12T00:15:16;101751.38;;;20.04;98.22
72116;BME280;59991;52.140;5.428;2023-08-12T00:15:47;101750.22;;;20.01;98.29
72116;BME280;59991;52.140;5.428;2023-08-12T00:16:19;101751.88;;;19.99;97.66
72116;BME280;59991;52.140;5.428;2023-08-12T00:16:50;101754.66;;;19.99;97.83
72116;BME280;59991;52.140;5.428;2023-08-12T00:17:22;101765.72;;;19.99;97.38
72116;BME280;59991;52.140;5.428;2023-08-12T00:17:53;101760.97;;;19.99;98.24
72116;BME280;59991;52.140;5.428;2023-08-12T00:18:24;101758.97;;;20.00;98.50
72116;BME280;59991;52.140;5.428;2023-08-12T00:18:56;101767.28;;;20.00;97.53
72116;BME280;59991;52.140;5.428;2023-08-12T00:19:27;101770.84;;;20.00;97.92
72116;BME280;59991;52.140;5.428;2023-08-12T00:19:59;101764.50;;;20.00;98.55
72116;BME280;59991;52.140;5.428;2023-08-12T00:20:31;101767.28;;;20.00;97.74
72116;BME280;59991;52.140;5.428;2023-08-12T00:21:07;101772.81;;;20.00;98.34
72116;BME280;59991;52.140;5.428;2023-08-12T00:21:39;101759.41;;;19.98;98.13
72116;BME280;59991;52.140;5.428;2023-08-12T00:22:10;101768.50;;;19.99;97.58
72116;BME280;59991;52.140;5.428;2023-08-12T00:22:42;101757.84;;;19.97;99.33
72116;BME280;59991;52.140;5.428;2023-08-12T00:23:13;101763.38;;;19.97;98.20
72116;BME280;59991;52.140;5.428;2023-08-12T00:23:45;101759.03;;;19.96;98.43
72116;BME280;59991;52.140;5.428;2023-08-12T00:24:18;101753.50;;;19.96;98.87
72116;BME280;59991;52.140;5.428;2023-08-12T00:24:51;101756.69;;;19.95;98.70
72116;BME280;59991;52.140;5.428;2023-08-12T00:25:23;101746.81;;;19.94;98.82
72116;BME280;59991;52.140;5.428;2023-08-12T00:25:57;101747.97;;;19.96;98.22
72116;BME280;59991;52.140;5.428;2023-08-12T00:26:29;101746.81;;;19.94;98.18
72116;BME280;59991;52.140;5.428;2023-08-12T00:27:01;101745.25;;;19.93;98.51
72116;BME280;59991;52.140;5.428;2023-08-12T00:27:32;101758.28;;;19.92;98.18
72116;BME280;59991;52.140;5.428;2023-08-12T00:28:04;101756.31;;;19.93;97.89
72116;BME280;59991;52.140;5.428;2023-08-12T00:28:36;101757.50;;;19.92;97.96
72116;BME280;59991;52.140;5.428;2023-08-12T00:29:08;101754.75;;;19.92;98.22
72116;BME280;59991;52.140;5.428;2023-08-12T00:29:39;101754.31;;;19.93;97.83
72116;BME280;59991;52.140;5.428;2023-08-12T00:30:11;101758.28;;;19.92;97.55
72116;BME280;59991;52.140;5.428;2023-08-12T00:30:42;101756.31;;;19.93;96.94
72116;BME280;59991;52.140;5.428;2023-08-12T00:31:14;101752.75;;;19.92;97.44
72116;BME280;59991;52.140;5.428;2023-08-12T00:31:45;101759.88;;;19.93;97.95
72116;BME280;59991;52.140;5.428;2023-08-12T00:32:17;101761.84;;;19.93;98.64
72116;BME280;59991;52.140;5.428;2023-08-12T00:32:48;101756.31;;;19.93;98.51
72116;BME280;59991;52.140;5.428;2023-08-12T00:33:20;101743.69;;;19.92;98.95
72116;BME280;59991;52.140;5.428;2023-08-12T00:33:51;101743.69;;;19.92;98.12
72116;BME280;59991;52.140;5.428;2023-08-12T00:34:22;101739.34;;;19.91;98.03
72116;BME280;59991;52.140;5.428;2023-08-12T00:34:54;101749.63;;;19.90;98.09
72116;BME280;59991;52.140;5.428;2023-08-12T00:35:25;101746.84;;;19.90;98.86
72116;BME280;59991;52.140;5.428;2023-08-12T00:35:57;101745.28;;;19.89;98.77
72116;BME280;59991;52.140;5.428;2023-08-12T00:36:28;101738.97;;;19.89;98.65
72116;BME280;59991;52.140;5.428;2023-08-12T00:37:00;101736.19;;;19.89;98.21
72116;BME280;59991;52.140;5.428;2023-08-12T00:37:32;101741.75;;;19.89;98.45
72116;BME280;59991;52.140;5.428;2023-08-12T00:38:03;101737.41;;;19.88;98.70
72116;BME280;59991;52.140;5.428;2023-08-12T00:38:35;101740.16;;;19.88;98.42
72116;BME280;59991;52.140;5.428;2023-08-12T00:39:06;101739.38;;;19.87;98.43
72116;BME280;59991;52.140;5.428;2023-08-12T00:39:37;101733.84;;;19.87;99.23
72116;BME280;59991;52.140;5.428;2023-08-12T00:40:10;101741.78;;;19.85;98.21
72116;BME280;59991;52.140;5.428;2023-08-12T00:40:41;101741.41;;;19.83;99.36
72116;BME280;59991;52.140;5.428;2023-08-12T00:41:13;101743.00;;;19.84;99.93
72116;BME280;59991;52.140;5.428;2023-08-12T00:41:44;101738.66;;;19.83;99.03
72116;BME280;59991;52.140;5.428;2023-08-12T00:42:16;101739.44;;;19.84;99.25
72116;BME280;59991;52.140;5.428;2023-08-12T00:42:47;101733.91;;;19.84;99.41
72116;BME280;59991;52.140;5.428;2023-08-12T00:43:19;101738.66;;;19.83;98.71
72116;BME280;59991;52.140;5.428;2023-08-12T00:43:50;101732.34;;;19.83;99.04
72116;BME280;59991;52.140;5.428;2023-08-12T00:44:21;101739.44;;;19.84;98.73
72116;BME280;59991;52.140;5.428;2023-08-12T00:44:53;101729.16;;;19.84;98.00
72116;BME280;59991;52.140;5.428;2023-08-12T00:45:25;101733.91;;;19.84;98.50
72116;BME280;59991;52.140;5.428;2023-08-12T00:45:56;101724.03;;;19.83;99.18
72116;BME280;59991;52.140;5.428;2023-08-12T00:46:28;101720.47;;;19.82;99.17
72116;BME280;59991;52.140;5.428;2023-08-12T00:47:00;101727.25;;;19.81;99.13
72116;BME280;59991;52.140;5.428;2023-08-12T00:47:32;101725.69;;;19.80;98.39
72116;BME280;59991;52.140;5.428;2023-08-12T00:48:04;101718.56;;;19.79;98.39
72116;BME280;59991;52.140;5.428;2023-08-12T00:48:36;101728.44;;;19.80;98.72
72116;BME280;59991;52.140;5.428;2023-08-12T00:49:08;101731.22;;;19.80;98.72
72116;BME280;59991;52.140;5.428;2023-08-12T00:49:40;101716.59;;;19.80;99.39
72116;BME280;59991;52.140;5.428;2023-08-12T00:50:15;101725.69;;;19.80;98.83
72116;BME280;59991;52.140;5.428;2023-08-12T00:50:47;101720.94;;;19.81;98.68
72116;BME280;59991;52.140;5.428;2023-08-12T00:51:18;101720.16;;;19.80;98.98
72116;BME280;59991;52.140;5.428;2023-08-12T00:51:52;101717.38;;;19.80;99.23
72116;BME280;59991;52.140;5.428;2023-08-12T00:52:24;101715.81;;;19.79;98.64
72116;BME280;59991;52.140;5.428;2023-08-12T00:52:56;101712.25;;;19.79;98.68
72116;BME280;59991;52.140;5.428;2023-08-12T00:53:28;101717.00;;;19.78;99.38
72116;BME280;59991;52.140;5.428;2023-08-12T00:54:02;101715.44;;;19.77;98.82
72116;BME280;59991;52.140;5.428;2023-08-12T00:54:35;101712.69;;;19.77;98.67
72116;BME280;59991;52.140;5.428;2023-08-12T00:55:07;101716.66;;;19.76;99.61
72116;BME280;59991;52.140;5.428;2023-08-12T00:55:39;101717.44;;;19.77;99.81
72116;BME280;59991;52.140;5.428;2023-08-12T00:56:10;101715.84;;;19.76;99.31
72116;BME280;59991;52.140;5.428;2023-08-12T00:56:42;101710.31;;;19.76;98.99
72116;BME280;59991;52.140;5.428;2023-08-12T00:57:14;101707.56;;;19.76;99.54
72116;BME280;59991;52.140;5.428;2023-08-12T00:57:46;101711.94;;;19.73;99.30
72116;BME280;59991;52.140;5.428;2023-08-12T00:58:18;101709.19;;;19.73;100.00
72116;BME280;59991;52.140;5.428;2023-08-12T00:58:50;101709.59;;;19.72;99.96
72116;BME280;59991;52.140;5.428;2023-08-12T00:59:22;101714.34;;;19.71;98.87
72116;BME280;59991;52.140;5.428;2023-08-12T00:59:55;101715.13;;;19.72;99.13
72116;BME280;59991;52.140;5.428;2023-08-12T01:00:27;101708.81;;;19.71;99.69
72116;BME280;59991;52.140;5.428;2023-08-12T01:00:58;101719.88;;;19.71;100.00
72116;BME280;59991;52.140;5.428;2023-08-12T01:01:30;101721.06;;;19.70;99.93
72116;BME280;59991;52.140;5.428;2023-08-12T01:02:03;101718.72;;;19.69;100.00
72116;BME280;59991;52.140;5.428;2023-08-12T01:02:35;101720.72;;;19.68;100.00
72116;BME280;59991;52.140;5.428;2023-08-12T01:03:07;101720.72;;;19.68;99.82
72116;BME280;59991;52.140;5.428;2023-08-12T01:03:39;101711.63;;;19.67;100.00
72116;BME280;59991;52.140;5.428;2023-08-12T01:04:10;101716.38;;;19.67;99.97
72116;BME280;59991;52.140;5.428;2023-08-12T01:04:42;101714.38;;;19.67;99.83
72116;BME280;59991;52.140;5.428;2023-08-12T01:05:17;101717.94;;;19.68;100.00
72116;BME280;59991;52.140;5.428;2023-08-12T01:05:48;101706.88;;;19.68;100.00
72116;BME280;59991;52.140;5.428;2023-08-12T01:06:20;101714.03;;;19.65;100.00
72116;BME280;59991;52.140;5.428;2023-08-12T01:06:52;101706.91;;;19.64;100.00
72116;BME280;59991;52.140;5.428;2023-08-12T01:07:23;101711.66;;;19.64;100.00
72116;BME280;59991;52.140;5.428;2023-08-12T01:07:55;101707.34;;;19.63;100.00
72116;BME280;59991;52.140;5.428;2023-08-12T01:08:30;101706.91;;;19.64;100.00
72116;BME280;59991;52.140;5.428;2023-08-12T01:09:03;101712.47;;;19.64;99.80
72116;BME280;59991;52.140;5.428;2023-08-12T01:09:36;101715.22;;;19.64;100.00
72116;BME280;59991;52.140;5.428;2023-08-12T01:10:08;101710.09;;;19.63;99.91
72116;BME280;59991;52.140;5.428;2023-08-12T01:10:51;101713.25;;;19.65;100.00
72116;BME280;59991;52.140;5.428;2023-08-12T01:11:32;101701.81;;;19.63;100.00
72116;BME280;59991;52.140;5.428;2023-08-12T01:13:46;101705.81;;;19.62;99.50
72116;BME280;59991;52.140;5.428;2023-08-12T01:15:17;101699.91;;;19.60;99.68
72116;BME280;59991;52.140;5.428;2023-08-12T01:15:55;101701.88;;;19.59;99.93
72116;BME280;59991;52.140;5.428;2023-08-12T01:16:30;101693.59;;;19.59;100.00
72116;BME280;59991;52.140;5.428;2023-08-12T01:17:07;101702.66;;;19.60;100.00
72116;BME280;59991;52.140;5.428;2023-08-12T01:17:42;101700.72;;;19.57;100.00
72116;BME280;59991;52.140;5.428;2023-08-12T01:18:14;101700.72;;;19.57;100.00
72116;BME280;59991;52.140;5.428;2023-08-12T01:18:47;101692.44;;;19.57;100.00
72116;BME280;59991;52.140;5.428;2023-08-12T01:19:35;101706.63;;;19.59;100.00
72116;BME280;59991;52.140;5.428;2023-08-12T01:20:08;101700.72;;;19.57;99.92
72116;BME280;59991;52.140;5.428;2023-08-12T01:20:40;101705.06;;;19.58;100.00
72116;BME280;59991;52.140;5.428;2023-08-12T01:21:16;101699.53;;;19.58;100.00
72116;BME280;59991;52.140;5.428;2023-08-12T01:21:49;101703.91;;;19.55;100.00
72116;BME280;59991;52.140;5.428;2023-08-12T01:22:21;101695.63;;;19.55;100.00
72116;BME280;59991;52.140;5.428;2023-08-12T01:23:07;101689.28;;;19.55;100.00
72116;BME280;59991;52.140;5.428;2023-08-12T01:23:39;101703.13;;;19.55;100.00
72116;BME280;59991;52.140;5.428;2023-08-12T01:24:10;101700.00;;;19.53;100.00
72116;BME280;59991;52.140;5.428;2023-08-12T01:24:43;101702.75;;;19.53;100.00
72116;BME280;59991;52.140;5.428;2023-08-12T01:25:15;101703.97;;;19.52;100.00
72116;BME280;59991;52.140;5.428;2023-08-12T01:25:47;101702.38;;;19.51;100.00
72116;BME280;59991;52.140;5.428;2023-08-12T01:26:18;101700.81;;;19.50;100.00
72116;BME280;59991;52.140;5.428;2023-08-12T01:26:50;101700.00;;;19.49;100.00
72116;BME280;59991;52.140;5.428;2023-08-12T01:27:22;101700.41;;;19.51;100.00
72116;BME280;59991;52.140;5.428;2023-08-12T01:27:53;101697.25;;;19.49;100.00
72116;BME280;59991;52.140;5.428;2023-08-12T01:28:25;101694.09;;;19.47;100.00
72116;BME280;59991;52.140;5.428;2023-08-12T01:28:56;101696.88;;;19.47;100.00
72116;BME280;59991;52.140;5.428;2023-08-12T01:29:28;101695.31;;;19.46;100.00
72116;BME280;59991;52.140;5.428;2023-08-12T01:29:59;101692.53;;;19.46;100.00
72116;BME280;59991;52.140;5.428;2023-08-12T01:30:32;101696.09;;;19.47;100.00
72116;BME280;59991;52.140;5.428;2023-08-12T01:31:12;101690.56;;;19.47;100.00
72116;BME280;59991;52.140;5.428;2023-08-12T01:31:55;101693.31;;;19.47;100.00
72116;BME280;59991;52.140;5.428;2023-08-12T01:32:45;101695.31;;;19.46;100.00
72116;BME280;59991;52.140;5.428;2023-08-12T01:33:42;101689.78;;;19.46;100.00
72116;BME280;59991;52.140;5.428;2023-08-12T01:35:17;101687.78;;;19.47;100.00
72116;BME280;59991;52.140;5.428;2023-08-12T01:36:46;101689.78;;;19.46;100.00
72116;BME280;59991;52.140;5.428;2023-08-12T01:37:27;101684.66;;;19.45;100.00
72116;BME280;59991;52.140;5.428;2023-08-12T01:38:00;101686.66;;;19.44;100.00
72116;BME280;59991;52.140;5.428;2023-08-12T01:38:34;101690.63;;;19.43;100.00
72116;BME280;59991;52.140;5.428;2023-08-12T01:39:08;101687.09;;;19.43;100.00
72116;BME280;59991;52.140;5.428;2023-08-12T01:39:42;101688.63;;;19.44;100.00
72116;BME280;59991;52.140;5.428;2023-08-12T01:40:15;101687.88;;;19.43;100.00
72116;BME280;59991;52.140;5.428;2023-08-12T01:40:48;101688.63;;;19.44;100.00
72116;BME280;59991;52.140;5.428;2023-08-12T01:41:21;101680.31;;;19.44;100.00
72116;BME280;59991;52.140;5.428;2023-08-12T01:41:55;101681.09;;;19.44;100.00
72116;BME280;59991;52.140;5.428;2023-08-12T01:42:28;101683.09;;;19.44;100.00
72116;BME280;59991;52.140;5.428;2023-08-12T01:43:01;101677.16;;;19.45;100.00
72116;BME280;59991;52.140;5.428;2023-08-12T01:43:34;101684.66;;;19.45;100.00
72116;BME280;59991;52.140;5.428;2023-08-12T01:44:06;101673.59;;;19.45;100.00
72116;BME280;59991;52.140;5.428;2023-08-12T01:44:38;101677.94;;;19.46;100.00
72116;BME280;59991;52.140;5.428;2023-08-12T01:45:10;101668.84;;;19.45;100.00
72116;BME280;59991;52.140;5.428;2023-08-12T01:45:42;101672.03;;;19.44;100.00
72116;BME280;59991;52.140;5.428;2023-08-12T01:46:15;101667.28;;;19.44;100.00
72116;BME280;59991;52.140;5.428;2023-08-12T01:46:46;101664.50;;;19.44;100.00
72116;BME280;59991;52.140;5.428;2023-08-12T01:47:18;101662.97;;;19.43;100.00
72116;BME280;59991;52.140;5.428;2023-08-12T01:47:49;101674.03;;;19.43;100.00
72116;BME280;59991;52.140;5.428;2023-08-12T01:48:24;101667.34;;;19.41;100.00
72116;BME280;59991;52.140;5.428;2023-08-12T01:48:55;101659.06;;;19.41;100.00
72116;BME280;59991;52.140;5.428;2023-08-12T01:49:27;101671.31;;;19.40;100.00
72116;BME280;59991;52.140;5.428;2023-08-12T01:49:58;101672.88;;;19.41;100.00
72116;BME280;59991;52.140;5.428;2023-08-12T01:50:30;101665.38;;;19.41;100.00
72116;BME280;59991;52.140;5.428;2023-08-12T01:51:01;101670.13;;;19.41;100.00
72116;BME280;59991;52.140;5.428;2023-08-12T01:51:34;101668.56;;;19.40;100.00
72116;BME280;59991;52.140;5.428;2023-08-12T01:52:05;101665.38;;;19.41;100.00
72116;BME280;59991;52.140;5.428;2023-08-12T01:52:37;101666.16;;;19.42;100.00
72116;BME280;59991;52.140;5.428;2023-08-12T01:53:09;101664.59;;;19.41;100.00
72116;BME280;59991;52.140;5.428;2023-08-12T01:53:40;101663.41;;;19.42;100.00
72116;BME280;59991;52.140;5.428;2023-08-12T01:54:11;101673.25;;;19.43;100.00
72116;BME280;59991;52.140;5.428;2023-08-12T01:54:43;101673.69;;;19.41;100.00
72116;BME280;59991;52.140;5.428;2023-08-12T01:55:14;101662.19;;;19.43;100.00
72116;BME280;59991;52.140;5.428;2023-08-12T01:55:48;101664.97;;;19.43;100.00
72116;BME280;59991;52.140;5.428;2023-08-12T01:56:20;101670.50;;;19.43;100.00
72116;BME280;59991;52.140;5.428;2023-08-12T01:56:52;101660.97;;;19.44;100.00
72116;BME280;59991;52.140;5.428;2023-08-12T01:57:23;101659.44;;;19.43;100.00
72116;BME280;59991;52.140;5.428;2023-08-12T01:57:55;101657.44;;;19.43;100.00
72116;BME280;59991;52.140;5.428;2023-08-12T01:58:26;101663.72;;;19.44;100.00
72116;BME280;59991;52.140;5.428;2023-08-12T01:58:58;101656.66;;;19.43;100.00
72116;BME280;59991;52.140;5.428;2023-08-12T01:59:29;101657.00;;;19.45;100.00
72116;BME280;59991;52.140;5.428;2023-08-12T02:00:02;101662.19;;;19.43;100.00
72116;BME280;59991;52.140;5.428;2023-08-12T02:00:33;101655.44;;;19.44;100.00
72116;BME280;59991;52.140;5.428;2023-08-12T02:01:05;101657.44;;;19.43;100.00
72116;BME280;59991;52.140;5.428;2023-08-12T02:01:36;101655.88;;;19.42;100.00
72116;BME280;59991;52.140;5.428;2023-08-12T02:02:08;101653.91;;;19.43;100.00
72116;BME280;59991;52.140;5.428;2023-08-12T02:02:39;101653.44;;;19.44;100.00
72116;BME280;59991;52.140;5.428;2023-08-12T02:03:11;101652.66;;;19.44;100.00
72116;BME280;59991;52.140;5.428;2023-08-12T02:03:42;101651.91;;;19.43;100.00
72116;BME280;59991;52.140;5.428;2023-08-12T02:04:14;101649.16;;;19.43;100.00
72116;BME280;59991;52.140;5.428;2023-08-12T02:04:46;101651.53;;;19.41;100.00
72116;BME280;59991;52.140;5.428;2023-08-12T02:05:17;101651.13;;;19.43;100.00
72116;BME280;59991;52.140;5.428;2023-08-12T02:05:49;101647.59;;;19.42;100.00
72116;BME280;59991;52.140;5.428;2023-08-12T02:06:20;101655.88;;;19.42;100.00
72116;BME280;59991;52.140;5.428;2023-08-12T02:06:52;101651.13;;;19.43;100.00
72116;BME280;59991;52.140;5.428;2023-08-12T02:07:23;101651.13;;;19.43;100.00
72116;BME280;59991;52.140;5.428;2023-08-12T02:07:55;101646.38;;;19.43;100.00
72116;BME280;59991;52.140;5.428;2023-08-12T02:08:26;101651.91;;;19.43;100.00
72116;BME280;59991;52.140;5.428;2023-08-12T02:08:58;101651.91;;;19.43;100.00
72116;BME280;59991;52.140;5.428;2023-08-12T02:09:29;101642.84;;;19.43;100.00
72116;BME280;59991;52.140;5.428;2023-08-12T02:10:01;101645.59;;;19.43;100.00
72116;BME280;59991;52.140;5.428;2023-08-12T02:10:33;101648.38;;;19.43;100.00
72116;BME280;59991;52.140;5.428;2023-08-12T02:11:05;101642.06;;;19.42;100.00
72116;BME280;59991;52.140;5.428;2023-08-12T02:11:36;101645.22;;;19.41;100.00
72116;BME280;59991;52.140;5.428;2023-08-12T02:12:07;101644.44;;;19.40;100.00
72116;BME280;59991;52.140;5.428;2023-08-12T02:12:39;101645.22;;;19.41;100.00
72116;BME280;59991;52.140;5.428;2023-08-12T02:13:29;101642.06;;;19.42;100.00
72116;BME280;59991;52.140;5.428;2023-08-12T02:14:01;101638.91;;;19.40;100.00
72116;BME280;59991;52.140;5.428;2023-08-12T02:14:32;101638.13;;;19.40;100.00
72116;BME280;59991;52.140;5.428;2023-08-12T02:15:04;101642.47;;;19.41;100.00
72116;BME280;59991;52.140;5.428;2023-08-12T02:15:36;101636.16;;;19.40;100.00
72116;BME280;59991;52.140;5.428;2023-08-12T02:16:07;101642.47;;;19.41;100.00
72116;BME280;59991;52.140;5.428;2023-08-12T02:16:39;101640.47;;;19.41;100.00
72116;BME280;59991;52.140;5.428;2023-08-12T02:17:11;101638.50;;;19.42;100.00
72116;BME280;59991;52.140;5.428;2023-08-12T02:17:43;101644.03;;;19.42;100.00
72116;BME280;59991;52.140;5.428;2023-08-12T02:18:14;101644.03;;;19.42;100.00
72116;BME280;59991;52.140;5.428;2023-08-12T02:18:46;101641.28;;;19.42;100.00
72116;BME280;59991;52.140;5.428;2023-08-12T02:19:17;101643.25;;;19.41;100.00
72116;BME280;59991;52.140;5.428;2023-08-12T02:19:49;101642.84;;;19.43;100.00
72116;BME280;59991;52.140;5.428;2023-08-12T02:20:20;101641.28;;;19.42;100.00
72116;BME280;59991;52.140;5.428;2023-08-12T02:20:52;101642.06;;;19.42;100.00
72116;BME280;59991;52.140;5.428;2023-08-12T02:21:23;101642.84;;;19.43;100.00
72116;BME280;59991;52.140;5.428;2023-08-12T02:21:54;101640.84;;;19.43;100.00
72116;BME280;59991;52.140;5.428;2023-08-12T02:22:26;101649.16;;;19.43;100.00
72116;BME280;59991;52.140;5.428;2023-08-12T02:22:57;101640.47;;;19.41;100.00
72116;BME280;59991;52.140;5.428;2023-08-12T02:23:29;101642.84;;;19.43;100.00
72116;BME280;59991;52.140;5.428;2023-08-12T02:24:00;101640.06;;;19.43;100.00
72116;BME280;59991;52.140;5.428;2023-08-12T02:24:32;101637.31;;;19.43;100.00
72116;BME280;59991;52.140;5.428;2023-08-12T02:25:54;101643.25;;;19.41;100.00
72116;BME280;59991;52.140;5.428;2023-08-12T02:26:25;101637.72;;;19.41;100.00
72116;BME280;59991;52.140;5.428;2023-08-12T02:26:57;101637.72;;;19.41;100.00
72116;BME280;59991;52.140;5.428;2023-08-12T02:27:28;101634.16;;;19.41;100.00
72116;BME280;59991;52.140;5.428;2023-08-12T02:28:00;101638.50;;;19.42;100.00
72116;BME280;59991;52.140;5.428;2023-08-12T02:28:31;101639.69;;;19.41;100.00
72116;BME280;59991;52.140;5.428;2023-08-12T02:29:03;101635.38;;;19.40;100.00
72116;BME280;59991;52.140;5.428;2023-08-12T02:29:35;101632.59;;;19.40;100.00
72116;BME280;59991;52.140;5.428;2023-08-12T02:30:07;101636.94;;;19.41;100.00
72116;BME280;59991;52.140;5.428;2023-08-12T02:30:38;101634.16;;;19.41;100.00
72116;BME280;59991;52.140;5.428;2023-08-12T02:31:10;101636.16;;;19.40;100.00
72116;BME280;59991;52.140;5.428;2023-08-12T02:31:41;101638.50;;;19.42;100.00
72116;BME280;59991;52.140;5.428;2023-08-12T02:32:13;101632.56;;;19.43;100.00
72116;BME280;59991;52.140;5.428;2023-08-12T02:32:44;101632.97;;;19.42;100.00
72116;BME280;59991;52.140;5.428;2023-08-12T02:33:17;101630.19;;;19.42;100.00
72116;BME280;59991;52.140;5.428;2023-08-12T02:33:49;101625.88;;;19.41;100.00
72116;BME280;59991;52.140;5.428;2023-08-12T02:34:23;101631.00;;;19.42;100.00
72116;BME280;59991;52.140;5.428;2023-08-12T02:34:54;101625.88;;;19.41;100.00
72116;BME280;59991;52.140;5.428;2023-08-12T02:35:26;101628.22;;;19.42;100.00
72116;BME280;59991;52.140;5.428;2023-08-12T02:35:57;101625.88;;;19.41;100.00
72116;BME280;59991;52.140;5.428;2023-08-12T02:36:29;101629.41;;;19.41;100.00
72116;BME280;59991;52.140;5.428;2023-08-12T02:37:00;101627.44;;;19.42;100.00
72116;BME280;59991;52.140;5.428;2023-08-12T02:37:32;101623.88;;;19.41;100.00
72116;BME280;59991;52.140;5.428;2023-08-12T02:38:03;101625.09;;;19.40;100.00
72116;BME280;59991;52.140;5.428;2023-08-12T02:38:35;101626.66;;;19.41;100.00
72116;BME280;59991;52.140;5.428;2023-08-12T02:39:06;101624.66;;;19.42;100.00
72116;BME280;59991;52.140;5.428;2023-08-12T02:39:38;101628.22;;;19.42;100.00
72116;BME280;59991;52.140;5.428;2023-08-12T02:40:09;101625.47;;;19.42;100.00
72116;BME280;59991;52.140;5.428;2023-08-12T02:40:42;101629.00;;;19.43;100.00
72116;BME280;59991;52.140;5.428;2023-08-12T02:41:13;101616.38;;;19.42;100.00
72116;BME280;59991;52.140;5.428;2023-08-12T02:41:45;101627.44;;;19.42;100.00
72116;BME280;59991;52.140;5.428;2023-08-12T02:42:16;101621.91;;;19.42;100.00
72116;BME280;59991;52.140;5.428;2023-08-12T02:42:48;101615.59;;;19.41;100.00
72116;BME280;59991;52.140;5.428;2023-08-12T02:43:19;101618.34;;;19.41;100.00
72116;BME280;59991;52.140;5.428;2023-08-12T02:43:51;101627.84;;;19.40;100.00
72116;BME280;59991;52.140;5.428;2023-08-12T02:44:22;101627.06;;;19.40;100.00
72116;BME280;59991;52.140;5.428;2023-08-12T02:44:54;101622.31;;;19.40;100.00
72116;BME280;59991;52.140;5.428;2023-08-12T02:45:26;101624.31;;;19.40;100.00
72116;BME280;59991;52.140;5.428;2023-08-12T02:45:58;101627.44;;;19.42;100.00
72116;BME280;59991;52.140;5.428;2023-08-12T02:46:29;101614.81;;;19.41;100.00
72116;BME280;59991;52.140;5.428;2023-08-12T02:47:01;101623.88;;;19.41;100.00
72116;BME280;59991;52.140;5.428;2023-08-12T02:47:32;101625.88;;;19.41;100.00
72116;BME280;59991;52.140;5.428;2023-08-12T02:48:04;101631.41;;;19.41;100.00
72116;BME280;59991;52.140;5.428;2023-08-12T02:48:36;101623.09;;;19.41;100.00
72116;BME280;59991;52.140;5.428;2023-08-12T02:49:08;101617.56;;;19.41;100.00
72116;BME280;59991;52.140;5.428;2023-08-12T02:49:39;101614.03;;;19.40;100.00
72116;BME280;59991;52.140;5.428;2023-08-12T02:50:10;101618.78;;;19.40;100.00
72116;BME280;59991;52.140;5.428;2023-08-12T02:50:42;101618.78;;;19.40;100.00
72116;BME280;59991;52.140;5.428;2023-08-12T02:51:13;101613.25;;;19.40;100.00
72116;BME280;59991;52.140;5.428;2023-08-12T02:51:45;101611.25;;;19.40;100.00
72116;BME280;59991;52.140;5.428;2023-08-12T02:52:16;101614.81;;;19.41;100.00
72116;BME280;59991;52.140;5.428;2023-08-12T02:52:48;101619.56;;;19.40;100.00
72116;BME280;59991;52.140;5.428;2023-08-12T02:53:19;101610.47;;;19.40;100.00